sensor_id;sensor_type;location;lat;lon;timestamp;temperature;humidity
4934;DHT22;2482;49.154;8.254;2023-02-15T00:02:26;1.10;99.90
4934;DHT22;2482;49.154;8.254;2023-02-15T00:04:53;1.20;99.90
4934;DHT22;2482;49.154;8.254;2023-02-15T00:07:22;1.20;99.90
4934;DHT22;2482;49.154;8.254;2023-02-15T00:09:49;1.40;99.90
4934;DHT22;2482;49.154;8.254;2023-02-15T00:12:16;1.40;99.90
4934;DHT22;2482;49.154;8.254;2023-02-15T00:14:43;1.20;99.90
4934;DHT22;2482;49.154;8.254;2023-02-15T00:17:10;1.30;99.90
4934;DHT22;2482;49.154;8.254;2023-02-15T00:19:37;1.30;99.90
4934;DHT22;2482;49.154;8.254;2023-02-15T00:22:04;1.30;99.90
4934;DHT22;2482;49.154;8.254;2023-02-15T00:24:32;1.20;99.90
4934;DHT22;2482;49.154;8.254;2023-02-15T00:26:59;1.20;99.90
4934;DHT22;2482;49.154;8.254;2023-02-15T00:29:26;1.10;99.90
4934;DHT22;2482;49.154;8.254;2023-02-15T00:31:53;1.20;99.90
4934;DHT22;2482;49.154;8.254;2023-02-15T00:34:25;1.20;99.90
4934;DHT22;2482;49.154;8.254;2023-02-15T00:36:53;1.20;99.90
4934;DHT22;2482;49.154;8.254;2023-02-15T00:39:20;1.20;99.90
4934;DHT22;2482;49.154;8.254;2023-02-15T00:41:48;1.20;99.90
4934;DHT22;2482;49.154;8.254;2023-02-15T00:44:15;1.30;99.90
4934;DHT22;2482;49.154;8.254;2023-02-15T00:46:42;1.30;99.90
4934;DHT22;2482;49.154;8.254;2023-02-15T00:49:10;1.30;99.90
4934;DHT22;2482;49.154;8.254;2023-02-15T00:51:37;1.30;99.90
4934;DHT22;2482;49.154;8.254;2023-02-15T00:54:06;1.30;99.90
4934;DHT22;2482;49.154;8.254;2023-02-15T00:56:33;1.30;99.90
4934;DHT22;2482;49.154;8.254;2023-02-15T00:59:01;1.40;99.90
4934;DHT22;2482;49.154;8.254;2023-02-15T01:01:28;1.40;99.90
4934;DHT22;2482;49.154;8.254;2023-02-15T01:03:55;1.30;99.90
4934;DHT22;2482;49.154;8.254;2023-02-15T01:06:22;1.40;99.90
4934;DHT22;2482;49.154;8.254;2023-02-15T01:08:49;1.40;99.90
4934;DHT22;2482;49.154;8.254;2023-02-15T01:11:19;1.30;99.90
4934;DHT22;2482;49.154;8.254;2023-02-15T01:13:54;1.20;99.90
4934;DHT22;2482;49.154;8.254;2023-02-15T01:16:24;1.10;99.90
4934;DHT22;2482;49.154;8.254;2023-02-15T01:18:52;1.20;99.90
4934;DHT22;2482;49.154;8.254;2023-02-15T01:21:23;1.20;99.90
4934;DHT22;2482;49.154;8.254;2023-02-15T01:23:51;1.20;99.90
4934;DHT22;2482;49.154;8.254;2023-02-15T01:26:18;1.20;99.90
4934;DHT22;2482;49.154;8.254;2023-02-15T01:28:45;1.30;99.90
4934;DHT22;2482;49.154;8.254;2023-02-15T01:31:15;1.20;99.90
4934;DHT22;2482;49.154;8.254;2023-02-15T01:33:44;1.30;99.90
4934;DHT22;2482;49.154;8.254;2023-02-15T01:36:11;1.30;99.90
4934;DHT22;2482;49.154;8.254;2023-02-15T01:38:38;1.30;99.90
4934;DHT22;2482;49.154;8.254;2023-02-15T01:41:06;1.30;99.90
4934;DHT22;2482;49.154;8.254;2023-02-15T01:43:59;1.30;99.90
4934;DHT22;2482;49.154;8.254;2023-02-15T01:46:37;1.30;99.90
4934;DHT22;2482;49.154;8.254;2023-02-15T01:49:19;1.30;99.90
4934;DHT22;2482;49.154;8.254;2023-02-15T01:51:49;1.40;99.90
4934;DHT22;2482;49.154;8.254;2023-02-15T01:54:24;1.50;99.90
4934;DHT22;2482;49.154;8.254;2023-02-15T01:56:57;1.30;99.90
4934;DHT22;2482;49.154;8.254;2023-02-15T01:59:28;1.40;99.90
4934;DHT22;2482;49.154;8.254;2023-02-15T02:01:58;1.30;99.90
4934;DHT22;2482;49.154;8.254;2023-02-15T02:04:41;1.20;99.90
4934;DHT22;2482;49.154;8.254;2023-02-15T02:07:14;1.20;99.90
4934;DHT22;2482;49.154;8.254;2023-02-15T02:09:44;1.20;99.90
4934;DHT22;2482;49.154;8.254;2023-02-15T02:12:12;1.20;99.90
4934;DHT22;2482;49.154;8.254;2023-02-15T02:14:40;1.20;99.90
4934;DHT22;2482;49.154;8.254;2023-02-15T02:17:25;1.20;99.90
4934;DHT22;2482;49.154;8.254;2023-02-15T02:23:43;1.30;99.90
4934;DHT22;2482;49.154;8.254;2023-02-15T02:32:53;1.20;99.90
4934;DHT22;2482;49.154;8.254;2023-02-15T02:38:34;1.50;99.90
4934;DHT22;2482;49.154;8.254;2023-02-15T02:41:30;1.50;99.90
4934;DHT22;2482;49.154;8.254;2023-02-15T02:44:19;1.60;99.90
4934;DHT22;2482;49.154;8.254;2023-02-15T02:47:08;1.50;99.90
4934;DHT22;2482;49.154;8.254;2023-02-15T02:49:41;1.50;99.90
4934;DHT22;2482;49.154;8.254;2023-02-15T02:57:52;1.70;99.90
4934;DHT22;2482;49.154;8.254;2023-02-15T03:00:22;1.60;99.90
4934;DHT22;2482;49.154;8.254;2023-02-15T03:02:58;1.50;99.90
4934;DHT22;2482;49.154;8.254;2023-02-15T03:05:33;1.50;99.90
4934;DHT22;2482;49.154;8.254;2023-02-15T03:08:02;1.50;99.90
4934;DHT22;2482;49.154;8.254;2023-02-15T03:10:34;1.20;99.90
4934;DHT22;2482;49.154;8.254;2023-02-15T03:13:02;1.10;99.90
4934;DHT22;2482;49.154;8.254;2023-02-15T03:15:36;1.10;99.90
4934;DHT22;2482;49.154;8.254;2023-02-15T03:18:31;1.20;99.90
4934;DHT22;2482;49.154;8.254;2023-02-15T03:21:04;1.20;99.90
4934;DHT22;2482;49.154;8.254;2023-02-15T03:23:32;1.30;99.90
4934;DHT22;2482;49.154;8.254;2023-02-15T03:26:03;1.40;99.90
4934;DHT22;2482;49.154;8.254;2023-02-15T03:28:43;1.50;99.90
4934;DHT22;2482;49.154;8.254;2023-02-15T03:31:14;1.40;99.90
4934;DHT22;2482;49.154;8.254;2023-02-15T03:33:52;1.50;99.90
4934;DHT22;2482;49.154;8.254;2023-02-15T03:36:46;1.30;99.90
4934;DHT22;2482;49.154;8.254;2023-02-15T03:39:38;1.30;99.90
4934;DHT22;2482;49.154;8.254;2023-02-15T03:42:17;1.40;99.90
4934;DHT22;2482;49.154;8.254;2023-02-15T03:47:24;1.30;99.90
4934;DHT22;2482;49.154;8.254;2023-02-15T03:50:13;1.30;99.90
4934;DHT22;2482;49.154;8.254;2023-02-15T03:53:03;1.40;99.90
4934;DHT22;2482;49.154;8.254;2023-02-15T03:55:34;1.40;99.90
4934;DHT22;2482;49.154;8.254;2023-02-15T03:58:01;1.50;99.90
4934;DHT22;2482;49.154;8.254;2023-02-15T04:01:00;1.70;99.90
4934;DHT22;2482;49.154;8.254;2023-02-15T04:04:19;1.80;99.90
4934;DHT22;2482;49.154;8.254;2023-02-15T04:06:49;1.70;99.90
4934;DHT22;2482;49.154;8.254;2023-02-15T04:09:16;1.60;99.90
4934;DHT22;2482;49.154;8.254;2023-02-15T04:12:01;1.90;99.90
4934;DHT22;2482;49.154;8.254;2023-02-15T04:14:28;1.80;99.90
4934;DHT22;2482;49.154;8.254;2023-02-15T04:17:13;1.70;99.90
4934;DHT22;2482;49.154;8.254;2023-02-15T04:19:40;1.70;99.90
4934;DHT22;2482;49.154;8.254;2023-02-15T04:22:26;1.90;99.90
4934;DHT22;2482;49.154;8.254;2023-02-15T04:25:11;1.70;99.90
4934;DHT22;2482;49.154;8.254;2023-02-15T04:27:47;1.70;99.90
4934;DHT22;2482;49.154;8.254;2023-02-15T04:30:17;1.80;99.90
4934;DHT22;2482;49.154;8.254;2023-02-15T04:32:46;1.60;99.90
4934;DHT22;2482;49.154;8.254;2023-02-15T04:35:13;1.60;99.90
4934;DHT22;2482;49.154;8.254;2023-02-15T04:37:42;1.50;99.90
4934;DHT22;2482;49.154;8.254;2023-02-15T04:40:12;1.40;99.90
4934;DHT22;2482;49.154;8.254;2023-02-15T04:42:39;1.50;99.90
4934;DHT22;2482;49.154;8.254;2023-02-15T04:45:06;1.50;99.90
4934;DHT22;2482;49.154;8.254;2023-02-15T04:47:34;1.60;99.90
4934;DHT22;2482;49.154;8.254;2023-02-15T04:50:01;1.40;99.90
4934;DHT22;2482;49.154;8.254;2023-02-15T04:52:28;1.20;99.90
4934;DHT22;2482;49.154;8.254;2023-02-15T04:54:55;1.20;99.90
4934;DHT22;2482;49.154;8.254;2023-02-15T04:57:22;1.20;99.90
4934;DHT22;2482;49.154;8.254;2023-02-15T04:59:49;1.40;99.90
4934;DHT22;2482;49.154;8.254;2023-02-15T05:02:16;1.40;99.90
4934;DHT22;2482;49.154;8.254;2023-02-15T05:04:42;1.40;99.90
4934;DHT22;2482;49.154;8.254;2023-02-15T05:07:09;1.30;99.90
4934;DHT22;2482;49.154;8.254;2023-02-15T05:09:36;1.50;99.90
4934;DHT22;2482;49.154;8.254;2023-02-15T05:12:03;1.40;99.90
4934;DHT22;2482;49.154;8.254;2023-02-15T05:14:31;1.40;99.90
4934;DHT22;2482;49.154;8.254;2023-02-15T05:16:58;1.50;99.90
4934;DHT22;2482;49.154;8.254;2023-02-15T05:19:27;1.50;99.90
4934;DHT22;2482;49.154;8.254;2023-02-15T05:21:54;1.60;99.90
4934;DHT22;2482;49.154;8.254;2023-02-15T05:24:21;1.50;99.90
4934;DHT22;2482;49.154;8.254;2023-02-15T05:27:10;1.50;99.90
4934;DHT22;2482;49.154;8.254;2023-02-15T05:29:56;1.50;99.90
4934;DHT22;2482;49.154;8.254;2023-02-15T05:32:23;1.50;99.90
4934;DHT22;2482;49.154;8.254;2023-02-15T05:34:50;1.50;99.90
4934;DHT22;2482;49.154;8.254;2023-02-15T05:37:17;1.40;99.90
4934;DHT22;2482;49.154;8.254;2023-02-15T05:39:44;1.60;99.90
4934;DHT22;2482;49.154;8.254;2023-02-15T05:42:11;1.50;99.90
4934;DHT22;2482;49.154;8.254;2023-02-15T05:44:38;1.50;99.90
4934;DHT22;2482;49.154;8.254;2023-02-15T05:47:05;1.70;99.90
4934;DHT22;2482;49.154;8.254;2023-02-15T05:49:34;1.70;99.90
4934;DHT22;2482;49.154;8.254;2023-02-15T05:52:01;1.50;99.90
4934;DHT22;2482;49.154;8.254;2023-02-15T05:54:29;1.40;99.90
4934;DHT22;2482;49.154;8.254;2023-02-15T05:56:56;1.50;99.90
4934;DHT22;2482;49.154;8.254;2023-02-15T05:59:23;1.50;99.90
4934;DHT22;2482;49.154;8.254;2023-02-15T06:01:51;1.50;99.90
4934;DHT22;2482;49.154;8.254;2023-02-15T06:04:18;1.40;99.90
4934;DHT22;2482;49.154;8.254;2023-02-15T06:06:45;1.70;99.90
4934;DHT22;2482;49.154;8.254;2023-02-15T06:09:13;1.70;99.90
4934;DHT22;2482;49.154;8.254;2023-02-15T06:11:40;1.70;99.90
4934;DHT22;2482;49.154;8.254;2023-02-15T06:14:07;1.70;99.90
4934;DHT22;2482;49.154;8.254;2023-02-15T06:16:34;1.40;99.90
4934;DHT22;2482;49.154;8.254;2023-02-15T06:19:01;1.40;99.90
4934;DHT22;2482;49.154;8.254;2023-02-15T06:21:30;1.30;99.90
4934;DHT22;2482;49.154;8.254;2023-02-15T06:23:57;1.20;99.90
4934;DHT22;2482;49.154;8.254;2023-02-15T06:26:24;1.40;99.90
4934;DHT22;2482;49.154;8.254;2023-02-15T06:28:51;1.40;99.90
4934;DHT22;2482;49.154;8.254;2023-02-15T06:31:18;1.50;99.90
4934;DHT22;2482;49.154;8.254;2023-02-15T06:33:46;1.50;99.90
4934;DHT22;2482;49.154;8.254;2023-02-15T06:36:13;1.40;99.90
4934;DHT22;2482;49.154;8.254;2023-02-15T06:38:40;1.40;99.90
4934;DHT22;2482;49.154;8.254;2023-02-15T06:41:07;1.50;99.90
4934;DHT22;2482;49.154;8.254;2023-02-15T06:43:34;1.30;99.90
4934;DHT22;2482;49.154;8.254;2023-02-15T06:46:01;1.30;99.90
4934;DHT22;2482;49.154;8.254;2023-02-15T06:48:29;1.30;99.90
4934;DHT22;2482;49.154;8.254;2023-02-15T06:50:56;1.30;99.90
4934;DHT22;2482;49.154;8.254;2023-02-15T06:53:23;1.20;99.90
4934;DHT22;2482;49.154;8.254;2023-02-15T06:55:50;1.10;99.90
4934;DHT22;2482;49.154;8.254;2023-02-15T06:58:17;1.20;99.90
4934;DHT22;2482;49.154;8.254;2023-02-15T07:00:44;1.20;99.90
4934;DHT22;2482;49.154;8.254;2023-02-15T07:03:13;1.10;99.90
4934;DHT22;2482;49.154;8.254;2023-02-15T07:05:41;1.10;99.90
4934;DHT22;2482;49.154;8.254;2023-02-15T07:08:08;1.40;99.90
4934;DHT22;2482;49.154;8.254;2023-02-15T07:10:35;1.70;99.90
4934;DHT22;2482;49.154;8.254;2023-02-15T07:13:02;1.50;99.90
4934;DHT22;2482;49.154;8.254;2023-02-15T07:15:28;1.50;99.90
4934;DHT22;2482;49.154;8.254;2023-02-15T07:17:57;1.70;99.90
4934;DHT22;2482;49.154;8.254;2023-02-15T07:20:25;1.70;99.90
4934;DHT22;2482;49.154;8.254;2023-02-15T07:22:52;1.60;99.90
4934;DHT22;2482;49.154;8.254;2023-02-15T07:25:21;1.70;99.90
4934;DHT22;2482;49.154;8.254;2023-02-15T07:27:48;1.50;99.90
4934;DHT22;2482;49.154;8.254;2023-02-15T07:30:16;1.50;99.90
4934;DHT22;2482;49.154;8.254;2023-02-15T07:32:44;1.50;99.90
4934;DHT22;2482;49.154;8.254;2023-02-15T07:35:48;1.50;99.90
4934;DHT22;2482;49.154;8.254;2023-02-15T07:38:16;1.70;99.90
4934;DHT22;2482;49.154;8.254;2023-02-15T07:40:43;1.60;99.90
4934;DHT22;2482;49.154;8.254;2023-02-15T07:43:11;1.60;99.90
4934;DHT22;2482;49.154;8.254;2023-02-15T07:45:39;1.70;99.90
4934;DHT22;2482;49.154;8.254;2023-02-15T07:48:06;1.70;99.90
4934;DHT22;2482;49.154;8.254;2023-02-15T07:50:34;1.80;99.90
4934;DHT22;2482;49.154;8.254;2023-02-15T07:53:02;2.10;99.90
4934;DHT22;2482;49.154;8.254;2023-02-15T07:55:29;2.00;99.90
4934;DHT22;2482;49.154;8.254;2023-02-15T07:57:56;2.10;99.90
4934;DHT22;2482;49.154;8.254;2023-02-15T08:00:23;2.20;99.90
4934;DHT22;2482;49.154;8.254;2023-02-15T08:02:55;2.20;99.90
4934;DHT22;2482;49.154;8.254;2023-02-15T08:05:42;1.80;99.90
4934;DHT22;2482;49.154;8.254;2023-02-15T08:08:12;1.90;99.90
4934;DHT22;2482;49.154;8.254;2023-02-15T08:11:05;1.90;99.90
4934;DHT22;2482;49.154;8.254;2023-02-15T08:16:33;1.60;99.90
4934;DHT22;2482;49.154;8.254;2023-02-15T08:19:09;1.60;99.90
4934;DHT22;2482;49.154;8.254;2023-02-15T08:21:40;1.60;99.90
4934;DHT22;2482;49.154;8.254;2023-02-15T08:24:10;1.70;99.90
4934;DHT22;2482;49.154;8.254;2023-02-15T08:26:39;2.10;99.90
4934;DHT22;2482;49.154;8.254;2023-02-15T08:29:09;2.30;99.90
4934;DHT22;2482;49.154;8.254;2023-02-15T08:31:37;2.30;99.90
4934;DHT22;2482;49.154;8.254;2023-02-15T08:34:04;2.20;99.90
4934;DHT22;2482;49.154;8.254;2023-02-15T08:36:32;2.00;99.90
4934;DHT22;2482;49.154;8.254;2023-02-15T08:39:00;2.00;99.90
4934;DHT22;2482;49.154;8.254;2023-02-15T08:41:34;2.20;99.90
4934;DHT22;2482;49.154;8.254;2023-02-15T08:44:06;2.40;99.90
4934;DHT22;2482;49.154;8.254;2023-02-15T08:46:36;2.30;99.90
4934;DHT22;2482;49.154;8.254;2023-02-15T08:49:05;2.00;99.90
4934;DHT22;2482;49.154;8.254;2023-02-15T08:51:35;2.10;99.90
4934;DHT22;2482;49.154;8.254;2023-02-15T08:54:08;2.20;99.90
4934;DHT22;2482;49.154;8.254;2023-02-15T08:56:38;2.40;99.90
4934;DHT22;2482;49.154;8.254;2023-02-15T08:59:11;2.40;99.90
4934;DHT22;2482;49.154;8.254;2023-02-15T09:01:43;2.30;99.90
4934;DHT22;2482;49.154;8.254;2023-02-15T09:04:10;2.10;99.90
4934;DHT22;2482;49.154;8.254;2023-02-15T09:06:40;2.20;99.90
4934;DHT22;2482;49.154;8.254;2023-02-15T09:09:08;2.10;99.90
4934;DHT22;2482;49.154;8.254;2023-02-15T09:11:38;2.30;99.90
4934;DHT22;2482;49.154;8.254;2023-02-15T09:14:08;2.00;99.90
4934;DHT22;2482;49.154;8.254;2023-02-15T09:16:42;2.10;99.90
4934;DHT22;2482;49.154;8.254;2023-02-15T09:19:16;2.40;99.90
4934;DHT22;2482;49.154;8.254;2023-02-15T09:21:46;2.10;99.90
4934;DHT22;2482;49.154;8.254;2023-02-15T09:24:15;2.10;99.90
4934;DHT22;2482;49.154;8.254;2023-02-15T09:26:45;2.30;99.90
4934;DHT22;2482;49.154;8.254;2023-02-15T09:29:15;2.10;99.90
4934;DHT22;2482;49.154;8.254;2023-02-15T09:31:44;2.30;99.90
4934;DHT22;2482;49.154;8.254;2023-02-15T09:34:15;2.30;99.90
4934;DHT22;2482;49.154;8.254;2023-02-15T09:36:44;2.60;99.90
4934;DHT22;2482;49.154;8.254;2023-02-15T09:39:22;2.50;99.90
4934;DHT22;2482;49.154;8.254;2023-02-15T09:53:43;2.20;99.90
4934;DHT22;2482;49.154;8.254;2023-02-15T09:56:30;2.10;99.90
4934;DHT22;2482;49.154;8.254;2023-02-15T09:59:27;2.00;99.90
4934;DHT22;2482;49.154;8.254;2023-02-15T10:02:12;1.90;99.90
4934;DHT22;2482;49.154;8.254;2023-02-15T10:05:05;1.80;99.90
4934;DHT22;2482;49.154;8.254;2023-02-15T10:26:47;2.10;99.90
4934;DHT22;2482;49.154;8.254;2023-02-15T10:29:36;2.10;99.90
4934;DHT22;2482;49.154;8.254;2023-02-15T10:37:57;2.90;99.90
4934;DHT22;2482;49.154;8.254;2023-02-15T10:43:29;3.00;99.90
4934;DHT22;2482;49.154;8.254;2023-02-15T10:49:15;3.10;99.90
4934;DHT22;2482;49.154;8.254;2023-02-15T10:52:10;3.10;99.90
4934;DHT22;2482;49.154;8.254;2023-02-15T10:55:06;2.90;99.90
4934;DHT22;2482;49.154;8.254;2023-02-15T11:06:11;3.10;99.90
4934;DHT22;2482;49.154;8.254;2023-02-15T11:08:46;3.20;99.90
4934;DHT22;2482;49.154;8.254;2023-02-15T11:11:34;3.20;99.90
4934;DHT22;2482;49.154;8.254;2023-02-15T11:14:22;3.40;99.90
4934;DHT22;2482;49.154;8.254;2023-02-15T11:16:57;3.50;99.90
4934;DHT22;2482;49.154;8.254;2023-02-15T11:19:32;3.50;99.90
4934;DHT22;2482;49.154;8.254;2023-02-15T11:22:04;3.10;99.90
4934;DHT22;2482;49.154;8.254;2023-02-15T11:24:40;3.20;99.90
4934;DHT22;2482;49.154;8.254;2023-02-15T11:27:31;3.40;99.90
4934;DHT22;2482;49.154;8.254;2023-02-15T11:30:09;3.50;99.90
4934;DHT22;2482;49.154;8.254;2023-02-15T11:32:40;3.50;99.90
4934;DHT22;2482;49.154;8.254;2023-02-15T11:37:58;3.70;99.90
4934;DHT22;2482;49.154;8.254;2023-02-15T11:40:35;3.80;99.90
4934;DHT22;2482;49.154;8.254;2023-02-15T11:43:20;3.90;99.90
4934;DHT22;2482;49.154;8.254;2023-02-15T11:45:48;4.00;99.90
4934;DHT22;2482;49.154;8.254;2023-02-15T11:48:15;4.10;99.90
4934;DHT22;2482;49.154;8.254;2023-02-15T11:50:45;4.20;99.90
4934;DHT22;2482;49.154;8.254;2023-02-15T11:53:20;3.90;99.90
4934;DHT22;2482;49.154;8.254;2023-02-15T11:55:51;3.90;99.90
4934;DHT22;2482;49.154;8.254;2023-02-15T11:58:40;4.00;99.90
4934;DHT22;2482;49.154;8.254;2023-02-15T12:01:35;4.30;99.90
4934;DHT22;2482;49.154;8.254;2023-02-15T12:06:59;4.20;99.90
4934;DHT22;2482;49.154;8.254;2023-02-15T12:09:50;4.30;99.90
4934;DHT22;2482;49.154;8.254;2023-02-15T12:12:32;4.10;99.90
4934;DHT22;2482;49.154;8.254;2023-02-15T12:15:04;4.20;99.90
4934;DHT22;2482;49.154;8.254;2023-02-15T12:17:48;4.10;99.90
4934;DHT22;2482;49.154;8.254;2023-02-15T12:23:03;4.40;99.90
4934;DHT22;2482;49.154;8.254;2023-02-15T12:25:53;4.50;99.90
4934;DHT22;2482;49.154;8.254;2023-02-15T12:28:31;4.50;99.90
4934;DHT22;2482;49.154;8.254;2023-02-15T12:31:01;4.30;99.90
4934;DHT22;2482;49.154;8.254;2023-02-15T12:33:36;4.40;99.90
4934;DHT22;2482;49.154;8.254;2023-02-15T12:36:17;4.80;99.90
4934;DHT22;2482;49.154;8.254;2023-02-15T12:42:16;4.80;99.90
4934;DHT22;2482;49.154;8.254;2023-02-15T12:44:36;4.50;99.90
4934;DHT22;2482;49.154;8.254;2023-02-15T12:49:43;4.60;99.90
4934;DHT22;2482;49.154;8.254;2023-02-15T12:54:47;4.90;99.90
4934;DHT22;2482;49.154;8.254;2023-02-15T12:57:27;4.60;99.90
4934;DHT22;2482;49.154;8.254;2023-02-15T12:59:59;4.30;99.90
4934;DHT22;2482;49.154;8.254;2023-02-15T13:08:13;4.50;99.90
4934;DHT22;2482;49.154;8.254;2023-02-15T13:11:09;4.50;99.90
4934;DHT22;2482;49.154;8.254;2023-02-15T13:14:01;4.20;99.90
4934;DHT22;2482;49.154;8.254;2023-02-15T13:16:48;3.80;99.90
4934;DHT22;2482;49.154;8.254;2023-02-15T13:21:47;4.80;99.90
4934;DHT22;2482;49.154;8.254;2023-02-15T13:24:23;4.90;99.90
4934;DHT22;2482;49.154;8.254;2023-02-15T13:26:54;5.30;99.90
4934;DHT22;2482;49.154;8.254;2023-02-15T13:29:52;5.20;99.90
4934;DHT22;2482;49.154;8.254;2023-02-15T13:32:34;5.40;99.90
4934;DHT22;2482;49.154;8.254;2023-02-15T13:35:05;4.80;99.90
4934;DHT22;2482;49.154;8.254;2023-02-15T13:40:55;4.40;99.90
4934;DHT22;2482;49.154;8.254;2023-02-15T13:43:58;4.50;99.90
4934;DHT22;2482;49.154;8.254;2023-02-15T13:56:32;4.10;99.90
4934;DHT22;2482;49.154;8.254;2023-02-15T13:59:17;4.40;99.90
4934;DHT22;2482;49.154;8.254;2023-02-15T14:02:14;4.50;99.90
4934;DHT22;2482;49.154;8.254;2023-02-15T14:11:02;4.30;99.90
4934;DHT22;2482;49.154;8.254;2023-02-15T14:13:58;4.40;99.90
4934;DHT22;2482;49.154;8.254;2023-02-15T14:16:39;4.20;99.90
4934;DHT22;2482;49.154;8.254;2023-02-15T14:19:47;4.50;99.90
4934;DHT22;2482;49.154;8.254;2023-02-15T14:22:41;4.40;99.90
4934;DHT22;2482;49.154;8.254;2023-02-15T14:28:16;4.60;99.90
4934;DHT22;2482;49.154;8.254;2023-02-15T14:30:50;4.60;99.90
4934;DHT22;2482;49.154;8.254;2023-02-15T14:36:05;5.00;99.90
4934;DHT22;2482;49.154;8.254;2023-02-15T14:47:22;5.50;99.90
4934;DHT22;2482;49.154;8.254;2023-02-15T14:49:53;5.40;99.90
4934;DHT22;2482;49.154;8.254;2023-02-15T14:52:20;5.30;99.90
4934;DHT22;2482;49.154;8.254;2023-02-15T15:02:40;5.50;99.90
4934;DHT22;2482;49.154;8.254;2023-02-15T15:05:46;5.60;99.90
4934;DHT22;2482;49.154;8.254;2023-02-15T15:08:27;5.80;99.90
4934;DHT22;2482;49.154;8.254;2023-02-15T15:14:10;5.20;99.90
4934;DHT22;2482;49.154;8.254;2023-02-15T15:16:59;5.00;99.90
4934;DHT22;2482;49.154;8.254;2023-02-15T15:22:20;5.20;99.90
4934;DHT22;2482;49.154;8.254;2023-02-15T15:24:50;5.10;99.90
4934;DHT22;2482;49.154;8.254;2023-02-15T15:27:39;5.00;99.90
4934;DHT22;2482;49.154;8.254;2023-02-15T15:33:25;4.70;99.90
4934;DHT22;2482;49.154;8.254;2023-02-15T15:36:22;5.00;99.90
4934;DHT22;2482;49.154;8.254;2023-02-15T15:45:17;4.50;99.90
4934;DHT22;2482;49.154;8.254;2023-02-15T15:50:44;4.20;99.90
4934;DHT22;2482;49.154;8.254;2023-02-15T15:53:20;4.10;99.90
4934;DHT22;2482;49.154;8.254;2023-02-15T15:55:52;4.10;99.90
4934;DHT22;2482;49.154;8.254;2023-02-15T15:58:23;4.00;99.90
4934;DHT22;2482;49.154;8.254;2023-02-15T16:01:10;4.00;99.90
4934;DHT22;2482;49.154;8.254;2023-02-15T16:03:51;4.00;99.90
4934;DHT22;2482;49.154;8.254;2023-02-15T16:06:37;4.20;99.90
4934;DHT22;2482;49.154;8.254;2023-02-15T16:09:26;4.10;99.90
4934;DHT22;2482;49.154;8.254;2023-02-15T16:11:57;3.90;99.90
4934;DHT22;2482;49.154;8.254;2023-02-15T16:14:34;3.70;99.90
4934;DHT22;2482;49.154;8.254;2023-02-15T16:17:04;3.70;99.90
4934;DHT22;2482;49.154;8.254;2023-02-15T16:19:36;3.60;99.90
4934;DHT22;2482;49.154;8.254;2023-02-15T16:22:20;3.50;99.90
4934;DHT22;2482;49.154;8.254;2023-02-15T16:27:45;3.30;99.90
4934;DHT22;2482;49.154;8.254;2023-02-15T16:33:08;3.20;99.90
4934;DHT22;2482;49.154;8.254;2023-02-15T16:35:57;3.20;99.90
4934;DHT22;2482;49.154;8.254;2023-02-15T16:41:21;2.90;99.90
4934;DHT22;2482;49.154;8.254;2023-02-15T16:43:51;2.90;99.90
4934;DHT22;2482;49.154;8.254;2023-02-15T16:48:56;2.70;99.90
4934;DHT22;2482;49.154;8.254;2023-02-15T16:51:28;2.60;99.90
4934;DHT22;2482;49.154;8.254;2023-02-15T16:54:00;2.60;99.90
4934;DHT22;2482;49.154;8.254;2023-02-15T16:56:34;2.50;99.90
4934;DHT22;2482;49.154;8.254;2023-02-15T16:59:02;2.40;99.90
4934;DHT22;2482;49.154;8.254;2023-02-15T17:01:31;2.40;99.90
4934;DHT22;2482;49.154;8.254;2023-02-15T17:06:39;2.30;99.90
4934;DHT22;2482;49.154;8.254;2023-02-15T17:09:14;2.20;99.90
4934;DHT22;2482;49.154;8.254;2023-02-15T17:11:45;2.10;99.90
4934;DHT22;2482;49.154;8.254;2023-02-15T17:14:16;2.10;99.90
4934;DHT22;2482;49.154;8.254;2023-02-15T17:16:52;2.00;99.90
4934;DHT22;2482;49.154;8.254;2023-02-15T17:19:26;1.80;99.90
4934;DHT22;2482;49.154;8.254;2023-02-15T17:21:58;1.80;99.90
4934;DHT22;2482;49.154;8.254;2023-02-15T17:24:40;1.70;99.90
4934;DHT22;2482;49.154;8.254;2023-02-15T17:27:16;1.70;99.90
4934;DHT22;2482;49.154;8.254;2023-02-15T17:29:51;1.70;99.90
4934;DHT22;2482;49.154;8.254;2023-02-15T17:32:27;1.70;99.90
4934;DHT22;2482;49.154;8.254;2023-02-15T17:35:23;1.70;99.90
4934;DHT22;2482;49.154;8.254;2023-02-15T17:38:16;1.60;99.90
4934;DHT22;2482;49.154;8.254;2023-02-15T17:40:45;1.70;99.90
4934;DHT22;2482;49.154;8.254;2023-02-15T17:43:12;1.80;99.90
4934;DHT22;2482;49.154;8.254;2023-02-15T17:45:47;1.80;99.90
4934;DHT22;2482;49.154;8.254;2023-02-15T17:48:35;1.70;99.90
4934;DHT22;2482;49.154;8.254;2023-02-15T17:51:05;1.40;99.90
4934;DHT22;2482;49.154;8.254;2023-02-15T17:53:33;1.20;99.90
4934;DHT22;2482;49.154;8.254;2023-02-15T17:56:00;1.10;99.90
4934;DHT22;2482;49.154;8.254;2023-02-15T17:58:36;1.10;99.90
4934;DHT22;2482;49.154;8.254;2023-02-15T18:01:16;1.10;99.90
4934;DHT22;2482;49.154;8.254;2023-02-15T18:04:03;1.00;99.90
4934;DHT22;2482;49.154;8.254;2023-02-15T18:06:50;1.10;99.90
4934;DHT22;2482;49.154;8.254;2023-02-15T18:09:35;1.10;99.90
4934;DHT22;2482;49.154;8.254;2023-02-15T18:14:54;0.90;99.90
4934;DHT22;2482;49.154;8.254;2023-02-15T18:17:32;0.80;99.90
4934;DHT22;2482;49.154;8.254;2023-02-15T18:20:03;0.80;99.90
4934;DHT22;2482;49.154;8.254;2023-02-15T18:22:32;0.90;99.90
4934;DHT22;2482;49.154;8.254;2023-02-15T18:24:59;1.00;99.90
4934;DHT22;2482;49.154;8.254;2023-02-15T18:27:26;1.10;99.90
4934;DHT22;2482;49.154;8.254;2023-02-15T18:29:53;1.00;99.90
4934;DHT22;2482;49.154;8.254;2023-02-15T18:32:33;0.80;99.90
4934;DHT22;2482;49.154;8.254;2023-02-15T18:35:02;0.60;99.90
4934;DHT22;2482;49.154;8.254;2023-02-15T18:37:31;0.50;99.90
4934;DHT22;2482;49.154;8.254;2023-02-15T18:39:59;0.40;99.90
4934;DHT22;2482;49.154;8.254;2023-02-15T18:42:32;0.30;99.90
4934;DHT22;2482;49.154;8.254;2023-02-15T18:47:42;0.30;99.90
4934;DHT22;2482;49.154;8.254;2023-02-15T18:50:10;0.40;99.90
4934;DHT22;2482;49.154;8.254;2023-02-15T18:52:38;0.50;99.90
4934;DHT22;2482;49.154;8.254;2023-02-15T18:57:52;0.50;99.90
4934;DHT22;2482;49.154;8.254;2023-02-15T19:00:26;0.60;99.90
4934;DHT22;2482;49.154;8.254;2023-02-15T19:02:55;0.60;99.90
4934;DHT22;2482;49.154;8.254;2023-02-15T19:05:23;0.60;99.90
4934;DHT22;2482;49.154;8.254;2023-02-15T19:07:50;0.60;99.90
4934;DHT22;2482;49.154;8.254;2023-02-15T19:10:23;0.70;99.90
4934;DHT22;2482;49.154;8.254;2023-02-15T19:12:52;0.50;99.90
4934;DHT22;2482;49.154;8.254;2023-02-15T19:15:22;0.50;99.90
4934;DHT22;2482;49.154;8.254;2023-02-15T19:17:50;0.60;99.90
4934;DHT22;2482;49.154;8.254;2023-02-15T19:20:19;0.70;99.90
4934;DHT22;2482;49.154;8.254;2023-02-15T19:22:47;0.70;99.90
4934;DHT22;2482;49.154;8.254;2023-02-15T19:25:21;0.70;99.90
4934;DHT22;2482;49.154;8.254;2023-02-15T19:27:54;0.70;99.90
4934;DHT22;2482;49.154;8.254;2023-02-15T19:30:25;0.80;99.90
4934;DHT22;2482;49.154;8.254;2023-02-15T19:32:56;0.60;99.90
4934;DHT22;2482;49.154;8.254;2023-02-15T19:35:32;0.70;99.90
4934;DHT22;2482;49.154;8.254;2023-02-15T19:38:03;0.80;99.90
4934;DHT22;2482;49.154;8.254;2023-02-15T19:40:33;0.90;99.90
4934;DHT22;2482;49.154;8.254;2023-02-15T19:43:02;0.80;99.90
4934;DHT22;2482;49.154;8.254;2023-02-15T19:45:30;0.90;99.90
4934;DHT22;2482;49.154;8.254;2023-02-15T19:48:01;0.70;99.90
4934;DHT22;2482;49.154;8.254;2023-02-15T19:50:30;0.70;99.90
4934;DHT22;2482;49.154;8.254;2023-02-15T19:53:00;0.60;99.90
4934;DHT22;2482;49.154;8.254;2023-02-15T19:55:33;0.80;99.90
4934;DHT22;2482;49.154;8.254;2023-02-15T19:58:01;0.80;99.90
4934;DHT22;2482;49.154;8.254;2023-02-15T20:00:32;1.00;99.90
4934;DHT22;2482;49.154;8.254;2023-02-15T20:03:00;1.00;99.90